ראשי / חיפושים אחרונים

חיפושים אחרונים

לוחית
סוג רכב
דגם
שנה
תאריך חיפוש
שעת חיפוש
12219802 פולקסווגן פולי - 2019 03/09/2026 11:30:47
66925503 טויוטה יפן RAV 4 HYBRID 2024 03/09/2026 11:30:42
51524604 ג'אקו סין JAECOO8 PHEV 2026 03/09/2026 11:30:40
45243501 טויוטה טורקיה COROLLA 2018 03/09/2026 11:30:38
2483485 קיה קוריאה הדרומית PICANTO 2017 03/09/2026 11:30:38
2042907 פולקסווגן גרמנ - 1992 03/09/2026 11:30:37
4068865 ביואיק ארהב" LUCERNE 2008 03/09/2026 11:30:33
3780963 דייהטסו יפן .SIRION 2008 03/09/2026 11:30:33
7296173 פולקסווגן פורטוגל SCIROCCO 2011 03/09/2026 11:30:32
87903601 מרצדס בנץ גרמנ - 2019 03/09/2026 11:30:32
57674101 סיאט ספרד IBIZA 2018 03/09/2026 11:30:31
4767939 סיטרואן ספרד C4 PICASSO 2016 03/09/2026 11:30:31
5155112 אאודי גרמניה A6 2013 03/09/2026 11:30:30
18298802 קיה קוריאה הדרומית NIRO 2020 03/09/2026 11:30:30
26620402 פיאט איטליה - 2020 03/09/2026 11:30:28
80871102 שברולט ארהב" - 2023 03/09/2026 11:30:28
4455369 פורד גרמניה FOCUS 2009 03/09/2026 11:30:27
8181259 רובר בריטניה DISCOVERY 3 2007 03/09/2026 11:30:26
1623772 קיה קוריאה הדרומית FORTE 2010 03/09/2026 11:30:26
4415166 מיצובישי יפן GRANDIS 2009 03/09/2026 11:30:24
85668402 סרס סין SERES 3 2022 03/09/2026 11:30:23
1121967 פיאט איטליה PUNTO 1.4 2009 03/09/2026 11:30:21
7296173 פולקסווגן פורטוגל SCIROCCO 2011 03/09/2026 11:30:21
8730150 רנו ספרד MEGANE 2003 03/09/2026 11:30:19
2999561 טויוטה יפן PRIUS HYBRID 2007 03/09/2026 11:30:14
5683161 סובארו יפן IMPREZA 2007 03/09/2026 11:30:09
34565802 וולבו שבדיה XC60 RECHARGET8 2021 03/09/2026 11:30:09
82109703 נגררי עירון - 2024 03/09/2026 11:30:07
2879450 דייהטסו יפן SIRION 2006 03/09/2026 11:30:07
37531301 קינג לונג סין - 2019 03/09/2026 11:30:04
44429801 טויוטה תאילנד HILUX 2018 03/09/2026 11:30:03
82109703 נגררי עירון - 2024 03/09/2026 11:30:03
68584802 רנו ספרד CAPTUR 2021 03/09/2026 11:30:01
2951570 טויוטה טורקיה VERSO 2009 03/09/2026 11:30:01
72776903 בומברדיה מקסיק - 2025 03/09/2026 11:29:59
4273956 פולקסווגן גרמניה GOLF 2005 03/09/2026 11:29:57
55797801 יונדאי טורקיה I20 2019 03/09/2026 11:29:56
10931304 סקודה צ'כיה KAMIQ FL 2025 03/09/2026 11:29:53
3738466 יונדאי קוריאה GETZ 2008 03/09/2026 11:29:52
13506503 קי.טי.אמ אוסטר - 2022 03/09/2026 11:29:51
36102002 מיצובישי יפן OUTLANDER 2021 03/09/2026 11:29:50
642771 פולקסווגן גרמנ - 1972 03/09/2026 11:29:48
19031503 מרצדס בנץ גרמנ - 2022 03/09/2026 11:29:46
72916701 יונדאי קוריאה הדרומית KONA 2019 03/09/2026 11:29:46
6799489 גולדן דרגון סי - 2017 03/09/2026 11:29:46
3593623 סובארו יפן IMPREZA NEW 2004 03/09/2026 11:29:45
9966772 וולבו בלגיה - 2004 03/09/2026 11:29:44
3647172 מאן אוסטריה - 2011 03/09/2026 11:29:44
73097301 מרצדס גרמניה A180 2020 03/09/2026 11:29:43
3628067 סקודה צ'כיה OCTAVIA 2009 03/09/2026 11:29:42
3628067 סקודה צ'כיה OCTAVIA 2009 03/09/2026 11:29:41
50040801 מרצדס גרמניה GLA200 2018 03/09/2026 11:29:41
2944361 טויוטה יפן COROLLA 2007 03/09/2026 11:29:38
1181967 פיאט טורקיה FIORINO 1.4 2009 03/09/2026 11:29:36
1365271 פולקסווגן מקסיקה JETTA 2010 03/09/2026 11:29:34
77889102 סובארו יפן XV 2022 03/09/2026 11:29:33
8425280 קרייזלר ארהב" JEEP CHEROKEE 2017 03/09/2026 11:29:32
3780963 דייהטסו יפן .SIRION 2008 03/09/2026 11:29:29
9463655 מזדה יפן - 1992 03/09/2026 11:29:25
50624603 רנו קוריאה הדרומית ARKANA 2023 03/09/2026 11:29:22
3316638 סיאט ספרד IBIZA 2016 03/09/2026 11:29:21
7296173 פולקסווגן פורטוגל SCIROCCO 2011 03/09/2026 11:29:20
5923589 קוואסאקי תאילנ - 2017 03/09/2026 11:29:19
2985138 סקודה צ'כיה OCTAVIA 2016 03/09/2026 11:29:17
22814202 סיאט ספרד LEON 2020 03/09/2026 11:29:16
89060202 קרייזלר ארהב" WRANGLER 2022 03/09/2026 11:29:09
3628067 סקודה צ'כיה OCTAVIA 2009 03/09/2026 11:29:07
92364801 בי ווי די - 2021 03/09/2026 11:29:04
37904104 וולבו שבדיה - 2026 03/09/2026 11:29:03
8962332 שברולט ארהב" - 2015 03/09/2026 11:29:00
17708001 מרצדס גרמניה C200 2018 03/09/2026 11:28:58
5155112 אאודי גרמניה A6 2013 03/09/2026 11:28:55
64649702 קיה סלובקיה SPORTAGE 2021 03/09/2026 11:28:54
18298802 קיה קוריאה הדרומית NIRO 2020 03/09/2026 11:28:51
5751452 טויוטה טורקיה COROLLA 2013 03/09/2026 11:28:49
28676203 סקניה-הולנד - 2024 03/09/2026 11:28:48
22145403 טויוטה טורקיה COROLLA HSD SDN 2022 03/09/2026 11:28:47
6168338 סקודה צ'כיה OCTAVIA 2017 03/09/2026 11:28:46
58161703 צ'רי סין TIGGO 8 PRO 2023 03/09/2026 11:28:43
3363769 מזדה יפן MAZDA 3 2009 03/09/2026 11:28:43
70055303 אאודי גרמניה A6 2024 03/09/2026 11:28:43
84306803 קיה קוריאה הדרומית STONIC 2024 03/09/2026 11:28:42
42159003 יונדאי טורקיה I20 2023 03/09/2026 11:28:39
5526169 ניסאן בריטניה QASHQAI 2010 03/09/2026 11:28:37
3628038 סקודה צ'כיה NEW SUPERB 2016 03/09/2026 11:28:37
83425503 יונדאי קוריאה הדרומית ELANTRA HEV 2024 03/09/2026 11:28:37
40887402 קיה סלובקיה SPORTAGE 2021 03/09/2026 11:28:35
3318014 מזדה יפן MAZDA3 2006 03/09/2026 11:28:34
9691137 סוזוקי הונגריה VITARA 2016 03/09/2026 11:28:33
1535271 סקודה צ'כיה ROOMSTER 2010 03/09/2026 11:28:32
228821 פורד ארהב" - 1965 03/09/2026 11:28:32
84295101 יונדאי טורקיה I20 2019 03/09/2026 11:28:31
9308013 פיאט איטליה - 2012 03/09/2026 11:28:30
1910639 סובארו יפן IMPREZA 2016 03/09/2026 11:28:30
46654601 טויוטה טורקיה COROLLA HSD SDN 2019 03/09/2026 11:28:30
80865402 שברולט קוריאה הדרומית TRAX 2023 03/09/2026 11:28:30
1620533 דאצ'יה רומניה DUSTER 2015 03/09/2026 11:28:29
1616833 רנו ספרד CAPTUR 2015 03/09/2026 11:28:28
16176803 יונדאי צ'כיה TUCSON 2022 03/09/2026 11:28:27
88423001 יונדאי קוריאה הדרומית IONIQ HYBRID 2020 03/09/2026 11:28:26
78948402 מרצדס בנץ גרמנ - 2022 03/09/2026 11:28:25
36878202 סובארו יפן FORESTER 2021 03/09/2026 11:28:23
9354213 איסוזו תאילנד PICK-UP 2013 03/09/2026 11:28:22
2148523 סובארו יפן פורסטר-ג'יפ 0002TA 1999 03/09/2026 11:28:21
7302933 מרוטי סוזוקי הודו ALTO 2015 03/09/2026 11:28:20
5546212 פולקסווגן גרמניה GOLF 2013 03/09/2026 11:28:18
2123034 יונדאי קוריאה הדרומית I35 2015 03/09/2026 11:28:17
2123034 יונדאי קוריאה הדרומית I35 2015 03/09/2026 11:28:16
1141637 טויוטה יפן PRIUS 2016 03/09/2026 11:28:16
1081173 יונדאי צ'כיה I30 2010 03/09/2026 11:28:15
84295101 יונדאי טורקיה I20 2019 03/09/2026 11:28:14
24641602 סיאט ספרד LEON 2020 03/09/2026 11:28:14
4523063 מזדה יפן MAZDA 3 2008 03/09/2026 11:28:12
1753784 ניסאן הודו MICRA 2017 03/09/2026 11:28:11
4218222 פיאט איטליה - 2016 03/09/2026 11:28:11
3744978 וולבו בלגיה - 2012 03/09/2026 11:28:11
72657801 פיאט איטליה - 2019 03/09/2026 11:28:08
1526159 סובארו יפן IMPREZA 2014 03/09/2026 11:28:06
17710402 סקודה צ'כיה KAROQ 2020 03/09/2026 11:28:04
228821 פורד ארהב" - 1965 03/09/2026 11:28:01
86871801 סוזוקי הונגריה VITARA 2020 03/09/2026 11:28:01
47665401 איסוזו תאילנד PICK-UP 2018 03/09/2026 11:27:59
7412237 ניסאן בריטניה QASHQAI 2016 03/09/2026 11:27:58
9895966 ניסאן בריטניה MICRA 2008 03/09/2026 11:27:57
4191378 הונדה יפן JAZZ HYBRID 2012 03/09/2026 11:27:56
80132002 שברולט ארהב" - 2022 03/09/2026 11:27:54
16808901 מיצובישי יפן OUTLANDER 2018 03/09/2026 11:27:52
66261001 סקודה צ'כיה KODIAQ 2019 03/09/2026 11:27:49
53780802 יונדאי טורקיה I10 2021 03/09/2026 11:27:49
12429501 טויוטה טורקיה C-HR HYBRID 2018 03/09/2026 11:27:48
7309856 ניסאן בריטניה ALMERA 2004 03/09/2026 11:27:47
9691137 סוזוקי הונגריה VITARA 2016 03/09/2026 11:27:46
68617502 מזדה יפן MX-30 2022 03/09/2026 11:27:45
15847503 יונדאי קוריאה הדרומית ELANTRA HEV 2022 03/09/2026 11:27:45
87502801 מיצובישי תאילנד SPACE STAR 2020 03/09/2026 11:27:45
8766887 פורשה גרמניה MACAN 2017 03/09/2026 11:27:42
6553315 שלדות - 2000 03/09/2026 11:27:42
1510139 פיאט טורקיה FIAT TIPO 2016 03/09/2026 11:27:38
92755501 בי אר אפ טורקי - 2022 03/09/2026 11:27:37
5288232 טויוטה טורקיה COROLLA 2015 03/09/2026 11:27:35
1093432 יונדאי קוריאה הדרומית I40 2014 03/09/2026 11:27:33
5777616 ב מ וו גרמניה 530I 2006 03/09/2026 11:27:33
2913112 פולקסווגן גרמניה GOLF 2013 03/09/2026 11:27:32
5968276 פולקסווגן פולין CADDY 2011 03/09/2026 11:27:30
86261601 רנו טורקיה CLIO 2020 03/09/2026 11:27:28
54723903 סאנגיונג קוריאה הדרומית REXTON 2023 03/09/2026 11:27:21
2692130 פורד ארהב" - 2016 03/09/2026 11:27:20
2521530 ב מ וו גרמניה 320I 2016 03/09/2026 11:27:18
2464238 סיאט ספרד LEON 2016 03/09/2026 11:27:16
2123034 יונדאי קוריאה הדרומית I35 2015 03/09/2026 11:27:16
76330601 טויוטה טורקיה COROLLA HSD SDN 2019 03/09/2026 11:27:14
4219211 יונדאי קוריאה הדרומית I25 2013 03/09/2026 11:27:13
25466604 זיקר סין ZEEKR X 2025 03/09/2026 11:27:11
4966508 וולבו בלגיה V40 T4 2017 03/09/2026 11:27:11
59454403 אקספנג סין P7I 2024 03/09/2026 11:27:09
49998902 מרצדס בנץ טורק - 2023 03/09/2026 11:27:07
85542803 מזדה תאילנד MAZDA 2 2024 03/09/2026 11:27:07
9691137 סוזוקי הונגריה VITARA 2016 03/09/2026 11:27:04
9691137 סוזוקי הונגריה VITARA 2016 03/09/2026 11:27:03
56158803 טויוטה טורקיה COROLLA SDN HSD 2023 03/09/2026 11:26:58
8177770 אאודי גרמניה A8 2010 03/09/2026 11:26:56
24377204 סקודה צ'כיה SCALA FL 2025 03/09/2026 11:26:56
3431271 מזדה יפן MAZDA 3 2010 03/09/2026 11:26:54
5760511 פיאט פולין FIAT 500 1.2 2013 03/09/2026 11:26:53
39890904 טסלה סין MODEL Y 2025 03/09/2026 11:26:49
8583610 דייהטסו יפן SIRION 2002 03/09/2026 11:26:48
89908002 ב מ וו ארהב" X3 XDRIVE20I 2022 03/09/2026 11:26:47
9558754 פורד ספרד KUGA 2016 03/09/2026 11:26:47
9339631 ניסאן בריטניה JUKE 2014 03/09/2026 11:26:46
46654601 טויוטה טורקיה COROLLA HSD SDN 2019 03/09/2026 11:26:45
2288861 טויוטה יפן LAND CRUISER 2007 03/09/2026 11:26:45
9691137 סוזוקי הונגריה VITARA 2016 03/09/2026 11:26:44
66817202 ניסאן מקסיקו SENTRA 2021 03/09/2026 11:26:44
80866402 שברולט ארהב" MALIBU 2023 03/09/2026 11:26:43
6222162 טויוטה יפן RAV 4 2007 03/09/2026 11:26:43
60593303 סיאט ספרד CUPRA 2024 03/09/2026 11:26:43
83665902 סקודה צ'כיה KAROQ 2022 03/09/2026 11:26:42
3805351 אופל גרמניה VECTRA-C 2003 03/09/2026 11:26:41
37209801 סקודה צ'כיה RAPID 2018 03/09/2026 11:26:36
9198655 קאדילאק ארהב" - 1971 03/09/2026 11:26:34
81524503 פולקסווגן גרמניה ID4 2024 03/09/2026 11:26:34
8100761 סקודה צ'כיה FABIA 2008 03/09/2026 11:26:34
24986803 יונדאי קוריאה הדרומית ELANTRA HEV 2023 03/09/2026 11:26:34
33987003 יונדאי טורקיה BAYON 2023 03/09/2026 11:26:34
1117738 סוזוקי הונגריה VITARA 2016 03/09/2026 11:26:33
87799001 יונדאי הודו ACCENT 2020 03/09/2026 11:26:31
6832168 מזדה יפן MAZDA 2 2010 03/09/2026 11:26:31
73885803 טויוטה צרפת YARIS CROSS HSD 2024 03/09/2026 11:26:31
33892001 ב מ וו גרמניה 220I 2018 03/09/2026 11:26:31
8832168 מזדה יפן MAZDA 3 2010 03/09/2026 11:26:29
44079302 סיאט ספרד IBIZA 2021 03/09/2026 11:26:29
19607402 פורשה סלובקיה CAYENNE EHYBRID 2020 03/09/2026 11:26:29
56927903 יונדאי טורקיה I20N 2024 03/09/2026 11:26:28
80865402 שברולט קוריאה הדרומית TRAX 2023 03/09/2026 11:26:28
31477104 ג'אקו סין JAECOO 7 PHEV 2025 03/09/2026 11:26:27
1974534 יונדאי טורקיה I10 2015 03/09/2026 11:26:27
3059523 סובארו יפן IMPREZA NEW 2002 03/09/2026 11:26:25
1073574 דימלרקריזלר-גר - 2011 03/09/2026 11:26:23
33987003 יונדאי טורקיה BAYON 2023 03/09/2026 11:26:21
21530501 דאצ'יה רומניה SANDERO 2018 03/09/2026 11:26:21
וואטסאפ